Norris, Tennessee
Current Conditions -  °F | °C
As of 8:53 PM on Thursday 20 Nov 2014 (Local Time) from KOQT Reporting Station
Clear Clear  
Wind Chill: 42°   Ceiling: Unl
Heat Index: 42°   Visibility: 10mi
Dew Point: 22°   Wind: 3mph
Humidity: 45%   Direction: 240°WSW
Pressure: 30.24"   Gusts: NA
Location:  36.2°N, 84.07°W
Report Text: KOQT 210153Z AUTO 24003KT 10SM CLR 06/M06 A3024 RMK AO2 SLP248 T00561056
Loading
Personal Weather Stations






























Interactive Weather Map New forecast layout! Learn more

10-Day Weather Forecast

Advertisements
Track Severe Weather on mobile